createdAt,value
2016-11-28T00:01:01.217Z,-2.15
2016-11-28T00:02:02.738Z,-2.24
2016-11-28T00:03:04.245Z,-2.39
2016-11-28T00:04:05.735Z,-2.54
2016-11-28T00:05:07.218Z,-2.68
2016-11-28T00:06:08.700Z,-2.78
2016-11-28T00:07:10.194Z,-2.83
2016-11-28T00:08:11.689Z,-2.88
2016-11-28T00:09:13.225Z,-2.83
2016-11-28T00:10:14.700Z,-2.68
2016-11-28T00:11:16.194Z,-2.59
2016-11-28T00:12:17.700Z,-2.59
2016-11-28T00:13:19.190Z,-2.59
2016-11-28T00:14:20.668Z,-2.64
2016-11-28T00:15:22.173Z,-2.73
2016-11-28T00:16:23.653Z,-2.78
2016-11-28T00:17:25.140Z,-2.78
2016-11-28T00:18:26.646Z,-2.88
2016-11-28T00:19:28.168Z,-2.93
2016-11-28T00:20:29.652Z,-2.98
2016-11-28T00:21:31.167Z,-2.98
2016-11-28T00:22:32.679Z,-3.08
2016-11-28T00:23:34.198Z,-3.08
2016-11-28T00:24:35.684Z,-3.13
2016-11-28T00:25:37.166Z,-3.13
2016-11-28T00:26:38.654Z,-3.18
2016-11-28T00:27:40.172Z,-3.23
2016-11-28T00:28:41.662Z,-3.18
2016-11-28T00:29:43.144Z,-3.23
2016-11-28T00:30:44.675Z,-3.23
2016-11-28T00:31:46.205Z,-3.23
2016-11-28T00:32:47.725Z,-3.23
2016-11-28T00:33:49.217Z,-3.23
2016-11-28T00:34:50.736Z,-3.28
2016-11-28T00:35:52.267Z,-3.23
2016-11-28T00:36:53.804Z,-3.18
2016-11-28T00:37:55.304Z,-3.18
2016-11-28T00:38:56.855Z,-3.23
2016-11-28T00:39:58.339Z,-3.28
2016-11-28T00:40:59.835Z,-3.33
2016-11-28T00:42:01.314Z,-3.33
2016-11-28T00:43:02.840Z,-3.38
2016-11-28T00:44:04.332Z,-3.43
2016-11-28T00:45:05.867Z,-3.48
2016-11-28T00:46:07.363Z,-3.48
2016-11-28T00:47:08.918Z,-3.48
2016-11-28T00:48:10.396Z,-3.48
2016-11-28T00:49:11.926Z,-3.43
2016-11-28T00:50:13.413Z,-3.38
2016-11-28T00:51:14.897Z,-3.43
2016-11-28T00:52:16.380Z,-3.53
2016-11-28T00:53:17.903Z,-3.53
2016-11-28T00:54:19.433Z,-3.53
2016-11-28T00:55:20.913Z,-3.53
2016-11-28T00:56:22.486Z,-3.53
2016-11-28T00:57:24.011Z,-3.48
2016-11-28T00:58:25.489Z,-3.43
2016-11-28T00:59:26.995Z,-3.43
2016-11-28T01:00:28.518Z,-3.48
2016-11-28T01:01:29.999Z,-3.43
2016-11-28T01:02:31.532Z,-3.43
2016-11-28T01:03:33.015Z,-3.53
2016-11-28T01:04:34.504Z,-3.63
2016-11-28T01:05:35.979Z,-3.68
2016-11-28T01:06:37.493Z,-3.63
2016-11-28T01:07:39.016Z,-3.68
2016-11-28T01:08:40.501Z,-3.68
2016-11-28T01:09:41.991Z,-3.68
2016-11-28T01:10:43.493Z,-3.73
2016-11-28T01:11:44.971Z,-3.78
2016-11-28T01:12:46.454Z,-3.78
2016-11-28T01:13:47.939Z,-3.78
2016-11-28T01:14:49.498Z,-3.78
2016-11-28T01:15:50.990Z,-3.78
2016-11-28T01:16:52.505Z,-3.83
2016-11-28T01:17:53.987Z,-3.78
2016-11-28T01:18:55.470Z,-3.83
2016-11-28T01:19:56.973Z,-3.83
2016-11-28T01:20:58.454Z,-3.83
2016-11-28T01:21:59.930Z,-3.88
2016-11-28T01:23:01.409Z,-3.88
2016-11-28T01:24:02.896Z,-3.88
2016-11-28T01:25:04.376Z,-3.88
2016-11-28T01:26:05.857Z,-3.83
2016-11-28T01:27:07.371Z,-3.78
2016-11-28T01:28:08.857Z,-3.78
2016-11-28T01:29:10.363Z,-3.83
2016-11-28T01:30:11.862Z,-3.83
2016-11-28T01:31:13.341Z,-3.73
2016-11-28T01:32:14.832Z,-3.78
2016-11-28T01:33:16.366Z,-3.78
2016-11-28T01:34:17.852Z,-3.83
2016-11-28T01:35:19.363Z,-3.88
2016-11-28T01:36:20.844Z,-3.88
2016-11-28T01:37:22.353Z,-3.88
2016-11-28T01:38:23.839Z,-3.88
2016-11-28T01:39:25.334Z,-3.83
2016-11-28T01:40:26.849Z,-3.78
2016-11-28T01:41:28.341Z,-3.68
2016-11-28T01:42:29.819Z,-3.43
2016-11-28T01:43:31.351Z,-3.18
2016-11-28T01:44:32.832Z,-3.13
2016-11-28T01:45:34.339Z,-3.13
2016-11-28T01:46:35.818Z,-2.93
2016-11-28T01:47:37.334Z,-2.73
2016-11-28T01:48:38.813Z,-2.59
2016-11-28T01:49:40.318Z,-2.59
2016-11-28T01:50:41.810Z,-2.68
2016-11-28T01:51:43.289Z,-2.78
2016-11-28T01:52:44.773Z,-2.98
2016-11-28T01:53:46.259Z,-3.03
2016-11-28T01:54:47.748Z,-2.98
2016-11-28T01:55:49.240Z,-3.13
2016-11-28T01:56:50.725Z,-3.08
2016-11-28T01:57:52.241Z,-3.03
2016-11-28T01:58:53.720Z,-2.98
2016-11-28T01:59:55.200Z,-3.03
2016-11-28T02:00:56.705Z,-3.08
2016-11-28T02:01:58.198Z,-3.03
2016-11-28T02:02:59.723Z,-2.98
2016-11-28T02:04:01.257Z,-2.93
2016-11-28T02:05:02.739Z,-2.93
2016-11-28T02:06:04.252Z,-2.98
2016-11-28T02:07:05.764Z,-2.98
2016-11-28T02:08:07.320Z,-2.98
2016-11-28T02:09:08.801Z,-2.93
2016-11-28T02:10:10.280Z,-2.83
2016-11-28T02:11:11.783Z,-2.73
2016-11-28T02:12:13.268Z,-2.64
2016-11-28T02:13:14.805Z,-2.64
2016-11-28T02:14:16.284Z,-2.49
2016-11-28T02:15:17.776Z,-2.39
2016-11-28T02:16:19.270Z,-2.39
2016-11-28T02:17:20.755Z,-2.39
2016-11-28T02:18:22.309Z,-2.39
2016-11-28T02:19:23.777Z,-2.2
2016-11-28T02:20:25.248Z,-2.1
2016-11-28T02:21:26.723Z,-2
2016-11-28T02:22:28.240Z,-2
2016-11-28T02:23:29.709Z,-2
2016-11-28T02:24:31.173Z,-2
2016-11-28T02:25:32.635Z,-2
2016-11-28T02:26:34.190Z,-1.96
2016-11-28T02:27:35.674Z,-1.96
2016-11-28T02:28:37.191Z,-1.91
2016-11-28T02:29:38.725Z,-1.86
2016-11-28T02:30:40.250Z,-1.81
2016-11-28T02:31:41.746Z,-1.81
2016-11-28T02:32:43.230Z,-1.72
2016-11-28T02:33:44.710Z,-1.67
2016-11-28T02:34:46.194Z,-1.62
2016-11-28T02:35:47.695Z,-1.57
2016-11-28T02:36:49.200Z,-1.52
2016-11-28T02:37:50.701Z,-1.52
2016-11-28T02:38:52.216Z,-1.52
2016-11-28T02:39:53.736Z,-1.52
2016-11-28T02:40:55.247Z,-1.57
2016-11-28T02:41:56.755Z,-1.57
2016-11-28T02:42:58.288Z,-1.62
2016-11-28T02:43:59.766Z,-1.76
2016-11-28T02:45:01.252Z,-1.86
2016-11-28T02:46:02.725Z,-2
2016-11-28T02:47:04.208Z,-2.1
2016-11-28T02:48:05.724Z,-2.2
2016-11-28T02:49:07.234Z,-2.24
2016-11-28T02:50:08.701Z,-2.2
2016-11-28T02:51:10.234Z,-2.15
2016-11-28T02:52:11.715Z,-2
2016-11-28T02:53:13.252Z,-1.86
2016-11-28T02:54:14.751Z,-1.81
2016-11-28T02:55:16.242Z,-1.76
2016-11-28T02:56:17.724Z,-1.72
2016-11-28T02:57:19.250Z,-1.72
2016-11-28T02:58:20.732Z,-1.67
2016-11-28T02:59:22.281Z,-1.62
2016-11-28T03:00:23.770Z,-1.62
2016-11-28T03:01:25.254Z,-1.52
2016-11-28T03:02:26.754Z,-1.48
2016-11-28T03:03:28.265Z,-1.43
2016-11-28T03:04:29.754Z,-1.48
2016-11-28T03:05:31.240Z,-1.48
2016-11-28T03:06:32.727Z,-1.48
2016-11-28T03:07:34.231Z,-1.48
2016-11-28T03:08:35.767Z,-1.43
2016-11-28T03:09:37.258Z,-1.43
2016-11-28T03:10:38.779Z,-1.43
2016-11-28T03:11:40.256Z,-1.43
2016-11-28T03:12:41.802Z,-1.57
2016-11-28T03:13:43.293Z,-1.72
2016-11-28T03:14:44.784Z,-1.86
2016-11-28T03:15:46.247Z,-2
2016-11-28T03:16:47.731Z,-2.05
2016-11-28T03:17:49.234Z,-2.1
2016-11-28T03:18:50.705Z,-2.2
2016-11-28T03:19:52.193Z,-2.2
2016-11-28T03:20:53.675Z,-2.24
2016-11-28T03:21:55.154Z,-2.29
2016-11-28T03:22:56.639Z,-2.29
2016-11-28T03:23:58.217Z,-2.29
2016-11-28T03:24:59.734Z,-2.34
2016-11-28T03:26:01.218Z,-2.34
2016-11-28T03:27:02.699Z,-2.39
2016-11-28T03:28:04.189Z,-2.39
2016-11-28T03:29:05.671Z,-2.44
2016-11-28T03:30:07.163Z,-2.54
2016-11-28T03:31:08.649Z,-2.59
2016-11-28T03:32:10.146Z,-2.59
2016-11-28T03:33:11.652Z,-2.59
2016-11-28T03:34:13.168Z,-2.59
2016-11-28T03:35:14.650Z,-2.54
2016-11-28T03:36:16.180Z,-2.54
2016-11-28T03:37:17.661Z,-2.59
2016-11-28T03:38:19.155Z,-2.64
2016-11-28T03:39:20.636Z,-2.64
2016-11-28T03:40:22.118Z,-2.68
2016-11-28T03:41:23.606Z,-2.73
2016-11-28T03:42:25.085Z,-2.78
2016-11-28T03:43:26.638Z,-2.83
2016-11-28T03:44:28.201Z,-2.88
2016-11-28T03:45:29.688Z,-2.83
2016-11-28T03:46:31.167Z,-2.88
2016-11-28T03:47:32.677Z,-2.88
2016-11-28T03:48:34.180Z,-2.83
2016-11-28T03:49:35.669Z,-2.83
2016-11-28T03:50:37.208Z,-2.83
2016-11-28T03:51:38.727Z,-2.83
2016-11-28T03:52:40.252Z,-2.78
2016-11-28T03:53:41.836Z,-2.68
2016-11-28T03:54:43.323Z,-2.59
2016-11-28T03:55:44.807Z,-2.54
2016-11-28T03:56:46.310Z,-2.44
2016-11-28T03:57:47.795Z,-2.39
2016-11-28T03:58:49.346Z,-2.34
2016-11-28T03:59:50.881Z,-2.24
2016-11-28T04:00:52.362Z,-2.29
2016-11-28T04:01:53.843Z,-2.34
2016-11-28T04:02:55.323Z,-2.34
2016-11-28T04:03:56.854Z,-2.39
2016-11-28T04:04:58.386Z,-2.39
2016-11-28T04:05:59.930Z,-2.39
2016-11-28T04:07:01.414Z,-2.39
2016-11-28T04:08:02.960Z,-2.39
2016-11-28T04:09:04.522Z,-2.39
2016-11-28T04:10:06.050Z,-2.44
2016-11-28T04:11:07.535Z,-2.49
2016-11-28T04:12:09.016Z,-2.54
2016-11-28T04:13:10.498Z,-2.59
2016-11-28T04:14:11.987Z,-2.59
2016-11-28T04:15:13.467Z,-2.64
2016-11-28T04:16:14.948Z,-2.68
2016-11-28T04:17:16.427Z,-2.73
2016-11-28T04:18:17.943Z,-2.78
2016-11-28T04:19:19.444Z,-2.78
2016-11-28T04:20:20.928Z,-2.88
2016-11-28T04:21:22.407Z,-2.93
2016-11-28T04:22:23.939Z,-2.88
2016-11-28T04:23:25.472Z,-2.88
2016-11-28T04:24:26.971Z,-2.93
2016-11-28T04:25:28.508Z,-2.93
2016-11-28T04:26:29.984Z,-2.98
2016-11-28T04:27:31.501Z,-3.08
2016-11-28T04:28:32.989Z,-3.08
2016-11-28T04:29:34.484Z,-3.08
2016-11-28T04:30:35.963Z,-3.08
2016-11-28T04:31:37.440Z,-3.08
2016-11-28T04:32:38.963Z,-3.13
2016-11-28T04:33:40.443Z,-3.18
2016-11-28T04:34:41.936Z,-3.18
2016-11-28T04:35:43.415Z,-3.18
2016-11-28T04:36:44.902Z,-3.18
2016-11-28T04:37:46.402Z,-3.18
2016-11-28T04:38:47.910Z,-3.18
2016-11-28T04:39:49.436Z,-3.23
2016-11-28T04:40:50.963Z,-3.28
2016-11-28T04:41:52.450Z,-3.28
2016-11-28T04:42:53.954Z,-3.23
2016-11-28T04:43:55.434Z,-3.28
2016-11-28T04:44:56.936Z,-3.33
2016-11-28T04:45:58.421Z,-3.33
2016-11-28T04:46:59.901Z,-3.33
2016-11-28T04:48:01.403Z,-3.38
2016-11-28T04:49:02.925Z,-3.33
2016-11-28T04:50:04.443Z,-3.28
2016-11-28T04:51:05.928Z,-3.28
2016-11-28T04:52:07.413Z,-3.28
2016-11-28T04:53:08.902Z,-3.23
2016-11-28T04:54:10.378Z,-3.28
2016-11-28T04:55:11.874Z,-3.23
2016-11-28T04:56:13.407Z,-3.28
2016-11-28T04:57:14.898Z,-3.28
2016-11-28T04:58:16.398Z,-3.28
2016-11-28T04:59:17.891Z,-3.33
2016-11-28T05:00:19.429Z,-3.33
2016-11-28T05:01:20.922Z,-3.38
2016-11-28T05:02:22.413Z,-3.38
2016-11-28T05:03:23.910Z,-3.33
2016-11-28T05:04:25.426Z,-3.38
2016-11-28T05:05:26.929Z,-3.38
2016-11-28T05:06:28.405Z,-3.43
2016-11-28T05:07:29.882Z,-3.38
2016-11-28T05:08:31.408Z,-3.38
2016-11-28T05:09:32.934Z,-3.38
2016-11-28T05:10:34.442Z,-3.38
2016-11-28T05:11:35.920Z,-3.43
2016-11-28T05:12:37.412Z,-3.43
2016-11-28T05:13:38.898Z,-3.38
2016-11-28T05:14:40.375Z,-3.38
2016-11-28T05:15:41.866Z,-3.33
2016-11-28T05:16:43.350Z,-3.33
2016-11-28T05:17:44.841Z,-3.38
2016-11-28T05:18:46.351Z,-3.38
2016-11-28T05:19:47.888Z,-3.38
2016-11-28T05:20:49.383Z,-3.38
2016-11-28T05:21:50.869Z,-3.38
2016-11-28T05:22:52.368Z,-3.38
2016-11-28T05:23:53.904Z,-3.38
2016-11-28T05:24:55.389Z,-3.38
2016-11-28T05:25:56.879Z,-3.43
2016-11-28T05:26:58.403Z,-3.43
2016-11-28T05:27:59.896Z,-3.48
2016-11-28T05:29:01.409Z,-3.53
2016-11-28T05:30:02.883Z,-3.48
2016-11-28T05:31:04.421Z,-3.53
2016-11-28T05:32:05.907Z,-3.58
2016-11-28T05:33:07.387Z,-3.58
2016-11-28T05:34:08.916Z,-3.68
2016-11-28T05:35:10.455Z,-3.63
2016-11-28T05:36:12.000Z,-3.63
2016-11-28T05:37:13.491Z,-3.58
2016-11-28T05:38:14.975Z,-3.58
2016-11-28T05:39:16.509Z,-3.63
2016-11-28T05:40:18.042Z,-3.63
2016-11-28T05:41:19.548Z,-3.63
2016-11-28T05:42:21.091Z,-3.63
2016-11-28T05:43:22.610Z,-3.58
2016-11-28T05:44:24.091Z,-3.58
2016-11-28T05:45:25.580Z,-3.58
2016-11-28T05:46:27.084Z,-3.58
2016-11-28T05:47:28.565Z,-3.53
2016-11-28T05:48:30.044Z,-3.53
2016-11-28T05:49:31.583Z,-3.53
2016-11-28T05:50:33.071Z,-3.53
2016-11-28T05:51:34.578Z,-3.53
2016-11-28T05:52:36.085Z,-3.53
2016-11-28T05:53:37.636Z,-3.58
2016-11-28T05:54:39.139Z,-3.58
2016-11-28T05:55:40.664Z,-3.63
2016-11-28T05:56:42.215Z,-3.68
2016-11-28T05:57:43.688Z,-3.68
2016-11-28T05:58:45.174Z,-3.63
2016-11-28T05:59:46.695Z,-3.68
2016-11-28T06:00:48.204Z,-3.73
2016-11-28T06:01:49.721Z,-3.68
2016-11-28T06:02:51.265Z,-3.68
2016-11-28T06:03:52.760Z,-3.73
2016-11-28T06:04:54.240Z,-3.73
2016-11-28T06:05:55.771Z,-3.78
2016-11-28T06:06:57.263Z,-3.78
2016-11-28T06:07:58.751Z,-3.78
2016-11-28T06:09:00.275Z,-3.78
2016-11-28T06:10:01.807Z,-3.83
2016-11-28T06:11:03.340Z,-3.83
2016-11-28T06:12:04.879Z,-3.83
2016-11-28T06:13:06.374Z,-3.78
2016-11-28T06:14:07.905Z,-3.78
2016-11-28T06:15:09.441Z,-3.78
2016-11-28T06:16:10.981Z,-3.83
2016-11-28T06:17:12.490Z,-3.83
2016-11-28T06:18:14.031Z,-3.83
2016-11-28T06:19:15.539Z,-3.88
2016-11-28T06:20:17.032Z,-3.88
2016-11-28T06:21:18.511Z,-3.93
2016-11-28T06:22:20.005Z,-3.88
2016-11-28T06:23:21.490Z,-3.88
2016-11-28T06:24:23.023Z,-3.83
2016-11-28T06:25:24.501Z,-3.83
2016-11-28T06:26:26.003Z,-3.88
2016-11-28T06:27:27.496Z,-3.88
2016-11-28T06:28:29.028Z,-3.88
2016-11-28T06:29:30.514Z,-3.83
2016-11-28T06:30:31.997Z,-3.83
2016-11-28T06:31:33.479Z,-3.88
2016-11-28T06:32:35.004Z,-3.88
2016-11-28T06:33:36.483Z,-3.88
2016-11-28T06:34:37.964Z,-3.88
2016-11-28T06:35:39.493Z,-3.83
2016-11-28T06:36:41.007Z,-3.78
2016-11-28T06:37:42.506Z,-3.73
2016-11-28T06:38:43.984Z,-3.68
2016-11-28T06:39:45.456Z,-3.63
2016-11-28T06:40:46.993Z,-3.68
2016-11-28T06:41:48.472Z,-3.63
2016-11-28T06:42:49.969Z,-3.63
2016-11-28T06:43:51.449Z,-3.58
2016-11-28T06:44:52.939Z,-3.58
2016-11-28T06:45:54.420Z,-3.58
2016-11-28T06:46:55.933Z,-3.53
2016-11-28T06:47:57.425Z,-3.48
2016-11-28T06:48:58.907Z,-3.38
2016-11-28T06:50:00.415Z,-3.28
2016-11-28T06:51:01.900Z,-3.18
2016-11-28T06:52:03.404Z,-3.13
2016-11-28T06:53:04.902Z,-3.03
2016-11-28T06:54:06.386Z,-2.98
2016-11-28T06:55:07.907Z,-2.98
2016-11-28T06:56:09.383Z,-2.88
2016-11-28T06:57:10.905Z,-2.88
2016-11-28T06:58:12.447Z,-2.83
2016-11-28T06:59:13.982Z,-2.78
2016-11-28T07:00:15.518Z,-2.73
2016-11-28T07:01:17.058Z,-2.73
2016-11-28T07:02:18.563Z,-2.68
2016-11-28T07:03:20.064Z,-2.68
2016-11-28T07:04:21.570Z,-2.73
2016-11-28T07:05:23.085Z,-2.64
2016-11-28T07:06:24.618Z,-2.59
2016-11-28T07:07:26.132Z,-2.59
2016-11-28T07:08:27.625Z,-2.49
2016-11-28T07:09:29.123Z,-2.49
2016-11-28T07:10:30.659Z,-2.39
2016-11-28T07:11:32.201Z,-2.39
2016-11-28T07:12:33.737Z,-2.34
2016-11-28T07:13:35.226Z,-2.24
2016-11-28T07:14:36.765Z,-2.29
2016-11-28T07:15:38.248Z,-2.24
2016-11-28T07:16:39.731Z,-2.24
2016-11-28T07:17:41.212Z,-2.29
2016-11-28T07:18:42.722Z,-2.29
2016-11-28T07:19:44.245Z,-2.34
2016-11-28T07:20:45.742Z,-2.39
2016-11-28T07:21:47.231Z,-2.39
2016-11-28T07:22:48.717Z,-2.39
2016-11-28T07:23:50.250Z,-2.39
2016-11-28T07:24:51.745Z,-2.39
2016-11-28T07:25:53.231Z,-2.39
2016-11-28T07:26:54.716Z,-2.44
2016-11-28T07:27:56.249Z,-2.39
2016-11-28T07:28:57.753Z,-2.39
2016-11-28T07:29:59.280Z,-2.39
2016-11-28T07:31:00.793Z,-2.44
2016-11-28T07:32:02.279Z,-2.39
2016-11-28T07:33:03.788Z,-2.39
2016-11-28T07:34:05.344Z,-2.34
2016-11-28T07:35:06.850Z,-2.39
2016-11-28T07:36:08.330Z,-2.39
2016-11-28T07:37:09.818Z,-2.39
2016-11-28T07:38:11.297Z,-2.34
2016-11-28T07:39:12.819Z,-2.34
2016-11-28T07:40:14.299Z,-2.34
2016-11-28T07:41:15.809Z,-2.24
2016-11-28T07:42:17.294Z,-2.24
2016-11-28T07:43:18.771Z,-2.2
2016-11-28T07:44:20.310Z,-2.15
2016-11-28T07:45:21.818Z,-2
2016-11-28T07:46:23.287Z,-2
2016-11-28T07:47:24.750Z,-2
2016-11-28T07:48:26.214Z,-2
2016-11-28T07:49:27.708Z,-1.96
2016-11-28T07:50:29.190Z,-1.86
2016-11-28T07:51:30.740Z,-1.81
2016-11-28T07:52:32.223Z,-1.81
2016-11-28T07:53:33.756Z,-1.76
2016-11-28T07:54:35.240Z,-1.72
2016-11-28T07:55:36.764Z,-1.72
2016-11-28T07:56:38.242Z,-1.72
2016-11-28T07:57:39.761Z,-1.76
2016-11-28T07:58:41.300Z,-1.81
2016-11-28T07:59:42.801Z,-1.81
2016-11-28T08:00:44.281Z,-1.81
2016-11-28T08:01:45.787Z,-1.72
2016-11-28T08:02:47.319Z,-1.67
2016-11-28T08:03:48.803Z,-1.57
2016-11-28T08:04:50.334Z,-1.52
2016-11-28T08:05:51.867Z,-1.52
2016-11-28T08:06:53.351Z,-1.52
2016-11-28T08:07:54.887Z,-1.48
2016-11-28T08:08:56.365Z,-1.43
2016-11-28T08:09:57.898Z,-1.38
2016-11-28T08:10:59.376Z,-1.34
2016-11-28T08:12:00.923Z,-1.24
2016-11-28T08:13:02.401Z,-1.24
2016-11-28T08:14:03.931Z,-1.29
2016-11-28T08:15:05.438Z,-1.29
2016-11-28T08:16:06.958Z,-1.24
2016-11-28T08:17:08.438Z,-1.19
2016-11-28T08:18:09.925Z,-1.19
2016-11-28T08:19:11.455Z,-1.24
2016-11-28T08:20:12.943Z,-1.29
2016-11-28T08:21:14.467Z,-1.34
2016-11-28T08:22:16.008Z,-1.38
2016-11-28T08:23:17.518Z,-1.34
2016-11-28T08:24:19.002Z,-1.29
2016-11-28T08:25:20.527Z,-1.29
2016-11-28T08:26:22.004Z,-1.34
2016-11-28T08:27:23.506Z,-1.34
2016-11-28T08:28:24.996Z,-1.43
2016-11-28T08:29:26.479Z,-1.52
2016-11-28T08:30:27.984Z,-1.62
2016-11-28T08:31:29.465Z,-1.67
2016-11-28T08:32:30.955Z,-1.62
2016-11-28T08:33:32.427Z,-1.62
2016-11-28T08:34:33.963Z,-1.62
2016-11-28T08:35:35.489Z,-1.62
2016-11-28T08:36:36.998Z,-1.62
2016-11-28T08:37:38.508Z,-1.67
2016-11-28T08:38:40.040Z,-1.72
2016-11-28T08:39:41.528Z,-1.76
2016-11-28T08:40:43.016Z,-1.81
2016-11-28T08:41:44.491Z,-1.81
2016-11-28T08:42:45.992Z,-1.81
2016-11-28T08:43:47.479Z,-1.81
2016-11-28T08:44:48.960Z,-1.81
2016-11-28T08:45:50.487Z,-1.81
2016-11-28T08:46:52.019Z,-1.81
2016-11-28T08:47:53.508Z,-1.76
2016-11-28T08:48:54.989Z,-1.72
2016-11-28T08:49:56.478Z,-1.72
2016-11-28T08:50:58.009Z,-1.67
2016-11-28T08:51:59.514Z,-1.62
2016-11-28T08:53:01.001Z,-1.62
2016-11-28T08:54:02.476Z,-1.62
2016-11-28T08:55:03.968Z,-1.62
2016-11-28T08:56:05.528Z,-1.67
2016-11-28T08:57:07.043Z,-1.67
2016-11-28T08:58:08.519Z,-1.67
2016-11-28T08:59:10.002Z,-1.67
2016-11-28T09:00:11.483Z,-1.62
2016-11-28T09:01:12.991Z,-1.62
2016-11-28T09:02:14.511Z,-1.62
2016-11-28T09:03:15.991Z,-1.62
2016-11-28T09:04:17.491Z,-1.62
2016-11-28T09:05:18.975Z,-1.67
2016-11-28T09:06:20.508Z,-1.62
2016-11-28T09:07:22.035Z,-1.67
2016-11-28T09:08:23.511Z,-1.67
2016-11-28T09:09:24.994Z,-1.67
2016-11-28T09:10:26.509Z,-1.67
2016-11-28T09:11:28.011Z,-1.67
2016-11-28T09:12:29.488Z,-1.62
2016-11-28T09:13:30.971Z,-1.62
2016-11-28T09:14:32.503Z,-1.67
2016-11-28T09:15:33.983Z,-1.62
2016-11-28T09:16:35.527Z,-1.62
2016-11-28T09:17:37.034Z,-1.67
2016-11-28T09:18:38.563Z,-1.67
2016-11-28T09:19:40.036Z,-1.62
2016-11-28T09:20:41.574Z,-1.52
2016-11-28T09:21:43.071Z,-1.52
2016-11-28T09:22:44.567Z,-1.52
2016-11-28T09:23:46.070Z,-1.52
2016-11-28T09:24:47.561Z,-1.57
2016-11-28T09:25:49.042Z,-1.62
2016-11-28T09:26:50.564Z,-1.52
2016-11-28T09:27:52.097Z,-1.34
2016-11-28T09:28:53.605Z,-1.24
2016-11-28T09:29:55.096Z,-1.15
2016-11-28T09:30:56.610Z,-1.01
2016-11-28T09:31:58.114Z,-0.87
2016-11-28T09:32:59.638Z,-0.73
2016-11-28T09:34:01.141Z,-0.59
2016-11-28T09:35:02.619Z,-0.45
2016-11-28T09:36:04.101Z,-0.45
2016-11-28T09:37:05.615Z,-0.49
2016-11-28T09:38:07.124Z,-0.54
2016-11-28T09:39:08.600Z,-0.54
2016-11-28T09:40:10.128Z,-0.49
2016-11-28T09:41:11.621Z,-0.54
2016-11-28T09:42:13.157Z,-0.68
2016-11-28T09:43:14.665Z,-0.77
2016-11-28T09:44:16.180Z,-0.77
2016-11-28T09:45:17.666Z,-0.77
2016-11-28T09:46:19.144Z,-0.68
2016-11-28T09:47:20.706Z,-0.63
2016-11-28T09:48:22.220Z,-0.68
2016-11-28T09:49:23.696Z,-0.68
2016-11-28T09:50:25.211Z,-0.63
2016-11-28T09:51:26.693Z,-0.63
2016-11-28T09:52:28.209Z,-0.68
2016-11-28T09:53:29.692Z,-0.77
2016-11-28T09:54:31.172Z,-0.87
2016-11-28T09:55:32.673Z,-0.96
2016-11-28T09:56:34.161Z,-1.01
2016-11-28T09:57:35.677Z,-1.01
2016-11-28T09:58:37.154Z,-0.96
2016-11-28T09:59:38.635Z,-0.91
2016-11-28T10:00:40.151Z,-0.91
2016-11-28T10:01:41.640Z,-0.87
2016-11-28T10:02:43.149Z,-0.73
2016-11-28T10:03:44.632Z,-0.68
2016-11-28T10:04:46.115Z,-0.63
2016-11-28T10:05:47.599Z,-0.54
2016-11-28T10:06:49.089Z,-0.49
2016-11-28T10:07:50.596Z,-0.54
2016-11-28T10:08:52.132Z,-0.63
2016-11-28T10:09:53.641Z,-0.59
2016-11-28T10:10:55.157Z,-0.54
2016-11-28T10:11:56.657Z,-0.45
2016-11-28T10:12:58.219Z,-0.31
2016-11-28T10:13:59.696Z,-0.36
2016-11-28T10:15:01.182Z,-0.45
2016-11-28T10:16:02.695Z,-0.49
2016-11-28T10:17:04.161Z,-0.4
2016-11-28T10:18:05.671Z,-0.08
2016-11-28T10:19:07.164Z,0.15
2016-11-28T10:20:08.655Z,0.15
2016-11-28T10:21:10.151Z,0.06
2016-11-28T10:22:11.632Z,-0.17
2016-11-28T10:23:13.105Z,-0.4
2016-11-28T10:24:14.593Z,-0.45
2016-11-28T10:25:16.078Z,-0.36
2016-11-28T10:26:17.563Z,-0.22
2016-11-28T10:27:19.100Z,-0.17
2016-11-28T10:28:20.638Z,-0.08
2016-11-28T10:29:22.150Z,-0.08
2016-11-28T10:30:23.630Z,-0.13
2016-11-28T10:31:25.140Z,-0.22
2016-11-28T10:32:26.672Z,-0.17
2016-11-28T10:33:28.171Z,-0.08
2016-11-28T10:34:29.636Z,0.06
2016-11-28T10:35:31.102Z,0.19
2016-11-28T10:36:32.590Z,0.19
2016-11-28T10:37:34.053Z,0.24
2016-11-28T10:38:35.528Z,0.1
2016-11-28T10:39:36.993Z,0.06
2016-11-28T10:40:38.448Z,0.1
2016-11-28T10:41:39.954Z,0.33
2016-11-28T10:42:41.422Z,0.56
2016-11-28T10:43:42.911Z,0.87
2016-11-28T10:44:44.358Z,1
2016-11-28T10:45:49.326Z,0.87
2016-11-28T10:46:50.844Z,0.74
2016-11-28T10:47:52.308Z,0.65
2016-11-28T10:48:53.778Z,0.6
2016-11-28T10:49:55.244Z,0.42
2016-11-28T10:50:56.754Z,0.15
2016-11-28T10:51:58.224Z,0.01
2016-11-28T10:52:59.720Z,-0.03
2016-11-28T10:54:01.260Z,-0.13
2016-11-28T10:55:02.787Z,-0.22
2016-11-28T10:56:04.330Z,-0.22
2016-11-28T10:57:05.852Z,-0.36
2016-11-28T10:58:07.333Z,-0.49
2016-11-28T10:59:08.838Z,-0.59
2016-11-28T11:00:10.374Z,-0.68
2016-11-28T11:01:11.856Z,-0.68
2016-11-28T11:02:13.356Z,-0.68
2016-11-28T11:03:14.871Z,-0.73
2016-11-28T11:04:16.367Z,-0.73
2016-11-28T11:05:17.858Z,-0.68
2016-11-28T11:06:19.393Z,-0.68
2016-11-28T11:07:20.878Z,-0.68
2016-11-28T11:08:22.366Z,-0.68
2016-11-28T11:09:23.855Z,-0.63
2016-11-28T11:10:25.335Z,-0.54
2016-11-28T11:11:26.813Z,-0.49
2016-11-28T11:12:28.302Z,-0.45
2016-11-28T11:13:29.821Z,-0.49
2016-11-28T11:14:31.330Z,-0.59
2016-11-28T11:15:32.834Z,-0.68
2016-11-28T11:16:34.326Z,-0.73
2016-11-28T11:17:35.862Z,-0.68
2016-11-28T11:18:37.346Z,-0.54
2016-11-28T11:19:38.875Z,-0.4
2016-11-28T11:20:40.361Z,-0.31
2016-11-28T11:21:41.846Z,-0.26
2016-11-28T11:22:43.322Z,-0.17
2016-11-28T11:23:44.833Z,-0.13
2016-11-28T11:24:46.337Z,-0.22
2016-11-28T11:25:47.838Z,-0.31
2016-11-28T11:26:49.316Z,-0.36
2016-11-28T11:27:50.784Z,-0.4
2016-11-28T11:28:52.252Z,-0.4
2016-11-28T11:29:53.758Z,-0.49
2016-11-28T11:30:55.238Z,-0.54
2016-11-28T11:31:56.716Z,-0.63
2016-11-28T11:32:58.251Z,-0.68
2016-11-28T11:33:59.769Z,-0.73
2016-11-28T11:35:01.269Z,-0.68
2016-11-28T11:36:02.799Z,-0.73
2016-11-28T11:37:04.278Z,-0.77
2016-11-28T11:38:05.760Z,-0.87
2016-11-28T11:39:07.238Z,-0.91
2016-11-28T11:40:08.763Z,-0.82
2016-11-28T11:41:10.287Z,-0.73
2016-11-28T11:42:11.769Z,-0.73
2016-11-28T11:43:13.252Z,-0.73
2016-11-28T11:44:14.802Z,-0.73
2016-11-28T11:45:16.313Z,-0.68
2016-11-28T11:46:17.820Z,-0.63
2016-11-28T11:47:19.304Z,-0.49
2016-11-28T11:48:20.808Z,-0.36
2016-11-28T11:49:22.321Z,-0.31
2016-11-28T11:50:23.811Z,-0.31
2016-11-28T11:51:25.316Z,-0.26
2016-11-28T11:52:26.816Z,-0.22
2016-11-28T11:53:28.340Z,-0.31
2016-11-28T11:54:29.873Z,-0.36
2016-11-28T11:55:31.375Z,-0.45
2016-11-28T11:56:32.880Z,-0.49
2016-11-28T11:57:34.379Z,-0.45
2016-11-28T11:58:35.900Z,-0.4
2016-11-28T11:59:37.386Z,-0.36
2016-11-28T12:00:38.882Z,-0.36
2016-11-28T12:01:40.415Z,-0.31
2016-11-28T12:02:41.908Z,-0.22
2016-11-28T12:03:43.395Z,-0.22
2016-11-28T12:04:44.882Z,-0.17
2016-11-28T12:05:46.374Z,-0.13
2016-11-28T12:06:47.856Z,-0.08
2016-11-28T12:07:49.397Z,-0.13
2016-11-28T12:08:50.912Z,-0.13
2016-11-28T12:09:52.443Z,-0.08
2016-11-28T12:10:53.930Z,-0.03
2016-11-28T12:11:55.384Z,0.1
2016-11-28T12:12:56.846Z,0.1
2016-11-28T12:13:58.367Z,0.28
2016-11-28T12:14:59.837Z,0.42
2016-11-28T12:16:01.369Z,0.51
2016-11-28T12:17:02.826Z,0.78
2016-11-28T12:18:04.297Z,1.27
2016-11-28T12:19:05.836Z,1.54
2016-11-28T12:20:07.302Z,1.71
2016-11-28T12:21:08.832Z,1.75
2016-11-28T12:22:10.349Z,1.71
2016-11-28T12:23:11.824Z,1.71
2016-11-28T12:24:13.270Z,5.9
2016-11-28T12:25:14.761Z,5.09
2016-11-28T12:26:16.299Z,3.89
2016-11-28T12:27:17.813Z,3.18
2016-11-28T12:28:19.288Z,3.18
2016-11-28T12:29:20.807Z,3.39
2016-11-28T12:30:22.275Z,2.66
2016-11-28T12:31:23.802Z,2.02
2016-11-28T12:32:25.267Z,1.54
2016-11-28T12:33:26.731Z,1.18
2016-11-28T12:34:28.244Z,0.96
2016-11-28T12:35:29.732Z,0.83
2016-11-28T12:36:31.227Z,2.36
2016-11-28T12:37:32.692Z,2.19
2016-11-28T12:38:34.208Z,1.75
2016-11-28T12:39:35.743Z,1.36
2016-11-28T12:40:37.246Z,1.31
2016-11-28T12:41:38.736Z,1.62
2016-11-28T12:42:40.200Z,2.49
2016-11-28T12:43:41.725Z,3.22
2016-11-28T12:44:43.194Z,2.49
2016-11-28T12:45:44.681Z,1.84
2016-11-28T12:46:46.200Z,1.31
2016-11-28T12:47:47.672Z,0.91
2016-11-28T12:48:49.136Z,0.56
2016-11-28T12:49:50.627Z,0.28
2016-11-28T12:50:52.067Z,0.1
2016-11-28T12:51:53.560Z,0.06
2016-11-28T12:52:55.024Z,0.06
2016-11-28T12:53:56.487Z,0.06
2016-11-28T12:54:57.966Z,0.06
2016-11-28T12:55:59.463Z,0.01
2016-11-28T12:57:00.965Z,-0.13
2016-11-28T12:58:02.496Z,-0.26
2016-11-28T12:59:03.983Z,-0.36
2016-11-28T13:00:05.461Z,-0.49
2016-11-28T13:01:06.936Z,-0.54
2016-11-28T13:02:08.447Z,-0.63
2016-11-28T13:03:09.976Z,-0.59
2016-11-28T13:04:11.463Z,-0.54
2016-11-28T13:05:12.945Z,-0.54
2016-11-28T13:06:14.505Z,-0.54
2016-11-28T13:07:16.056Z,-0.54
2016-11-28T13:08:17.624Z,-0.54
2016-11-28T13:09:19.108Z,-0.36
2016-11-28T13:10:20.670Z,-0.08
2016-11-28T13:11:22.138Z,0.19
2016-11-28T13:12:23.613Z,0.42
2016-11-28T13:13:25.104Z,0.6
2016-11-28T13:14:26.570Z,0.69
2016-11-28T13:15:28.058Z,0.69
2016-11-28T13:16:29.540Z,0.6
2016-11-28T13:17:31.013Z,0.56